sensor_id;sensor_type;location;lat;lon;timestamp;P1;durP1;ratioP1;P2;durP2;ratioP2
32152;SDS011;18656;50.580;11.392;2023-08-21T00:00:18;48.75;;;32.80;;
32152;SDS011;18656;50.580;11.392;2023-08-21T00:02:45;62.28;;;35.40;;
32152;SDS011;18656;50.580;11.392;2023-08-21T00:05:12;46.25;;;30.65;;
32152;SDS011;18656;50.580;11.392;2023-08-21T00:07:40;38.10;;;30.67;;
32152;SDS011;18656;50.580;11.392;2023-08-21T00:10:07;45.15;;;32.40;;
32152;SDS011;18656;50.580;11.392;2023-08-21T00:12:36;43.83;;;32.45;;
32152;SDS011;18656;50.580;11.392;2023-08-21T00:15:03;52.20;;;34.05;;
32152;SDS011;18656;50.580;11.392;2023-08-21T00:17:31;42.13;;;31.45;;
32152;SDS011;18656;50.580;11.392;2023-08-21T00:19:59;46.60;;;33.22;;
32152;SDS011;18656;50.580;11.392;2023-08-21T00:22:26;52.13;;;34.78;;
32152;SDS011;18656;50.580;11.392;2023-08-21T00:24:53;44.60;;;32.75;;
32152;SDS011;18656;50.580;11.392;2023-08-21T00:27:20;46.67;;;32.70;;
32152;SDS011;18656;50.580;11.392;2023-08-21T00:29:48;59.30;;;35.75;;
32152;SDS011;18656;50.580;11.392;2023-08-21T00:32:15;44.55;;;32.58;;
32152;SDS011;18656;50.580;11.392;2023-08-21T00:34:42;59.15;;;36.17;;
32152;SDS011;18656;50.580;11.392;2023-08-21T00:37:09;60.83;;;37.67;;
32152;SDS011;18656;50.580;11.392;2023-08-21T00:39:37;58.47;;;37.38;;
32152;SDS011;18656;50.580;11.392;2023-08-21T00:42:04;52.88;;;35.45;;
32152;SDS011;18656;50.580;11.392;2023-08-21T00:44:33;46.83;;;33.95;;
32152;SDS011;18656;50.580;11.392;2023-08-21T00:47:00;64.65;;;38.15;;
32152;SDS011;18656;50.580;11.392;2023-08-21T00:49:27;52.33;;;34.70;;
32152;SDS011;18656;50.580;11.392;2023-08-21T00:51:56;52.63;;;34.53;;
32152;SDS011;18656;50.580;11.392;2023-08-21T00:54:23;47.03;;;33.90;;
32152;SDS011;18656;50.580;11.392;2023-08-21T00:56:50;49.13;;;33.60;;
32152;SDS011;18656;50.580;11.392;2023-08-21T00:59:19;50.90;;;34.10;;
32152;SDS011;18656;50.580;11.392;2023-08-21T01:01:46;52.42;;;35.53;;
32152;SDS011;18656;50.580;11.392;2023-08-21T01:04:14;51.55;;;34.45;;
32152;SDS011;18656;50.580;11.392;2023-08-21T01:06:41;54.42;;;35.53;;
32152;SDS011;18656;50.580;11.392;2023-08-21T01:09:10;48.53;;;34.72;;
32152;SDS011;18656;50.580;11.392;2023-08-21T01:11:43;43.10;;;33.60;;
32152;SDS011;18656;50.580;11.392;2023-08-21T01:14:21;44.25;;;32.17;;
32152;SDS011;18656;50.580;11.392;2023-08-21T01:16:52;41.97;;;31.67;;
32152;SDS011;18656;50.580;11.392;2023-08-21T01:19:26;44.13;;;32.45;;
32152;SDS011;18656;50.580;11.392;2023-08-21T01:21:53;42.10;;;30.63;;
32152;SDS011;18656;50.580;11.392;2023-08-21T01:24:20;45.70;;;31.05;;
32152;SDS011;18656;50.580;11.392;2023-08-21T01:26:48;44.08;;;32.08;;
32152;SDS011;18656;50.580;11.392;2023-08-21T01:29:15;45.28;;;33.63;;
32152;SDS011;18656;50.580;11.392;2023-08-21T01:31:42;46.80;;;33.10;;
32152;SDS011;18656;50.580;11.392;2023-08-21T01:34:13;47.17;;;32.25;;
32152;SDS011;18656;50.580;11.392;2023-08-21T01:36:41;45.25;;;32.67;;
32152;SDS011;18656;50.580;11.392;2023-08-21T01:39:09;44.97;;;32.58;;
32152;SDS011;18656;50.580;11.392;2023-08-21T01:41:37;45.70;;;33.72;;
32152;SDS011;18656;50.580;11.392;2023-08-21T01:44:04;48.40;;;32.97;;
32152;SDS011;18656;50.580;11.392;2023-08-21T01:46:31;46.05;;;32.65;;
32152;SDS011;18656;50.580;11.392;2023-08-21T01:48:58;63.67;;;39.17;;
32152;SDS011;18656;50.580;11.392;2023-08-21T01:51:26;74.07;;;41.22;;
32152;SDS011;18656;50.580;11.392;2023-08-21T01:53:53;78.53;;;42.72;;
32152;SDS011;18656;50.580;11.392;2023-08-21T01:56:20;58.05;;;38.22;;
32152;SDS011;18656;50.580;11.392;2023-08-21T01:58:47;65.75;;;38.47;;
32152;SDS011;18656;50.580;11.392;2023-08-21T02:01:15;52.13;;;35.70;;
32152;SDS011;18656;50.580;11.392;2023-08-21T02:03:44;48.92;;;35.00;;
32152;SDS011;18656;50.580;11.392;2023-08-21T02:06:12;57.00;;;37.28;;
32152;SDS011;18656;50.580;11.392;2023-08-21T02:08:39;44.25;;;32.35;;
32152;SDS011;18656;50.580;11.392;2023-08-21T02:11:06;46.50;;;34.25;;
32152;SDS011;18656;50.580;11.392;2023-08-21T02:13:33;52.88;;;34.67;;
32152;SDS011;18656;50.580;11.392;2023-08-21T02:16:00;54.15;;;35.92;;
32152;SDS011;18656;50.580;11.392;2023-08-21T02:18:28;56.58;;;34.58;;
32152;SDS011;18656;50.580;11.392;2023-08-21T02:20:55;51.33;;;34.78;;
32152;SDS011;18656;50.580;11.392;2023-08-21T02:23:23;43.13;;;32.35;;
32152;SDS011;18656;50.580;11.392;2023-08-21T02:25:50;47.47;;;33.80;;
32152;SDS011;18656;50.580;11.392;2023-08-21T02:28:18;40.88;;;31.83;;
32152;SDS011;18656;50.580;11.392;2023-08-21T02:30:45;39.40;;;31.58;;
32152;SDS011;18656;50.580;11.392;2023-08-21T02:33:12;42.72;;;32.53;;
32152;SDS011;18656;50.580;11.392;2023-08-21T02:35:39;49.67;;;33.60;;
32152;SDS011;18656;50.580;11.392;2023-08-21T02:38:07;50.10;;;34.55;;
32152;SDS011;18656;50.580;11.392;2023-08-21T02:40:34;44.92;;;31.88;;
32152;SDS011;18656;50.580;11.392;2023-08-21T02:43:01;47.47;;;33.55;;
32152;SDS011;18656;50.580;11.392;2023-08-21T02:45:28;54.30;;;35.38;;
32152;SDS011;18656;50.580;11.392;2023-08-21T02:47:56;51.70;;;35.35;;
32152;SDS011;18656;50.580;11.392;2023-08-21T02:50:24;44.25;;;32.28;;
32152;SDS011;18656;50.580;11.392;2023-08-21T02:52:51;41.60;;;33.35;;
32152;SDS011;18656;50.580;11.392;2023-08-21T02:55:18;40.92;;;32.38;;
32152;SDS011;18656;50.580;11.392;2023-08-21T02:57:46;45.72;;;33.22;;
32152;SDS011;18656;50.580;11.392;2023-08-21T03:00:14;43.33;;;32.63;;
32152;SDS011;18656;50.580;11.392;2023-08-21T03:02:41;49.55;;;34.20;;
32152;SDS011;18656;50.580;11.392;2023-08-21T03:05:10;52.08;;;34.00;;
32152;SDS011;18656;50.580;11.392;2023-08-21T03:07:37;47.50;;;34.97;;
32152;SDS011;18656;50.580;11.392;2023-08-21T03:10:05;43.30;;;32.03;;
32152;SDS011;18656;50.580;11.392;2023-08-21T03:12:33;43.45;;;34.42;;
32152;SDS011;18656;50.580;11.392;2023-08-21T03:15:00;44.60;;;32.30;;
32152;SDS011;18656;50.580;11.392;2023-08-21T03:17:28;44.67;;;32.03;;
32152;SDS011;18656;50.580;11.392;2023-08-21T03:19:55;38.03;;;29.95;;
32152;SDS011;18656;50.580;11.392;2023-08-21T03:22:22;42.90;;;31.70;;
32152;SDS011;18656;50.580;11.392;2023-08-21T03:24:50;43.10;;;31.83;;
32152;SDS011;18656;50.580;11.392;2023-08-21T03:27:18;43.95;;;32.15;;
32152;SDS011;18656;50.580;11.392;2023-08-21T03:29:45;46.38;;;31.02;;
32152;SDS011;18656;50.580;11.392;2023-08-21T03:32:15;42.95;;;32.80;;
32152;SDS011;18656;50.580;11.392;2023-08-21T03:34:43;40.90;;;31.90;;
32152;SDS011;18656;50.580;11.392;2023-08-21T03:37:10;33.95;;;28.17;;
32152;SDS011;18656;50.580;11.392;2023-08-21T03:39:37;37.97;;;30.10;;
32152;SDS011;18656;50.580;11.392;2023-08-21T03:42:05;39.95;;;30.10;;
32152;SDS011;18656;50.580;11.392;2023-08-21T03:44:32;39.83;;;29.63;;
32152;SDS011;18656;50.580;11.392;2023-08-21T03:46:59;43.65;;;31.83;;
32152;SDS011;18656;50.580;11.392;2023-08-21T03:49:27;40.65;;;29.10;;
32152;SDS011;18656;50.580;11.392;2023-08-21T03:51:54;38.03;;;29.42;;
32152;SDS011;18656;50.580;11.392;2023-08-21T03:54:21;40.50;;;29.00;;
32152;SDS011;18656;50.580;11.392;2023-08-21T03:56:48;37.60;;;28.80;;
32152;SDS011;18656;50.580;11.392;2023-08-21T03:59:16;38.08;;;28.95;;
32152;SDS011;18656;50.580;11.392;2023-08-21T04:01:43;33.67;;;27.83;;
32152;SDS011;18656;50.580;11.392;2023-08-21T04:04:10;42.15;;;31.45;;
32152;SDS011;18656;50.580;11.392;2023-08-21T04:06:37;39.55;;;31.25;;
32152;SDS011;18656;50.580;11.392;2023-08-21T04:09:05;40.83;;;32.35;;
32152;SDS011;18656;50.580;11.392;2023-08-21T04:11:32;41.13;;;30.27;;
32152;SDS011;18656;50.580;11.392;2023-08-21T04:14:00;50.58;;;35.63;;
32152;SDS011;18656;50.580;11.392;2023-08-21T04:16:27;44.95;;;31.70;;
32152;SDS011;18656;50.580;11.392;2023-08-21T04:18:55;49.25;;;34.15;;
32152;SDS011;18656;50.580;11.392;2023-08-21T04:21:22;52.42;;;36.22;;
32152;SDS011;18656;50.580;11.392;2023-08-21T04:23:50;61.20;;;37.67;;
32152;SDS011;18656;50.580;11.392;2023-08-21T04:26:18;50.97;;;35.60;;
32152;SDS011;18656;50.580;11.392;2023-08-21T04:28:46;57.65;;;38.15;;
32152;SDS011;18656;50.580;11.392;2023-08-21T04:31:13;48.38;;;35.13;;
32152;SDS011;18656;50.580;11.392;2023-08-21T04:33:41;51.15;;;35.78;;
32152;SDS011;18656;50.580;11.392;2023-08-21T04:36:13;46.72;;;35.33;;
32152;SDS011;18656;50.580;11.392;2023-08-21T04:38:41;55.25;;;35.60;;
32152;SDS011;18656;50.580;11.392;2023-08-21T04:41:09;52.30;;;35.55;;
32152;SDS011;18656;50.580;11.392;2023-08-21T04:43:36;61.55;;;38.53;;
32152;SDS011;18656;50.580;11.392;2023-08-21T04:46:03;48.65;;;34.67;;
32152;SDS011;18656;50.580;11.392;2023-08-21T04:48:31;44.97;;;33.15;;
32152;SDS011;18656;50.580;11.392;2023-08-21T04:50:59;50.10;;;34.53;;
32152;SDS011;18656;50.580;11.392;2023-08-21T04:53:26;44.20;;;31.90;;
32152;SDS011;18656;50.580;11.392;2023-08-21T04:55:53;46.65;;;32.85;;
32152;SDS011;18656;50.580;11.392;2023-08-21T04:58:21;44.60;;;31.75;;
32152;SDS011;18656;50.580;11.392;2023-08-21T05:00:48;49.50;;;33.97;;
32152;SDS011;18656;50.580;11.392;2023-08-21T05:03:15;46.35;;;32.85;;
32152;SDS011;18656;50.580;11.392;2023-08-21T05:05:51;50.92;;;33.17;;
32152;SDS011;18656;50.580;11.392;2023-08-21T05:08:19;55.05;;;33.67;;
32152;SDS011;18656;50.580;11.392;2023-08-21T05:10:46;48.85;;;32.75;;
32152;SDS011;18656;50.580;11.392;2023-08-21T05:13:13;45.80;;;29.67;;
32152;SDS011;18656;50.580;11.392;2023-08-21T05:15:43;34.97;;;27.38;;
32152;SDS011;18656;50.580;11.392;2023-08-21T05:18:11;37.13;;;27.00;;
32152;SDS011;18656;50.580;11.392;2023-08-21T05:20:38;34.58;;;27.90;;
32152;SDS011;18656;50.580;11.392;2023-08-21T05:23:05;34.72;;;26.63;;
32152;SDS011;18656;50.580;11.392;2023-08-21T05:25:33;32.95;;;26.27;;
32152;SDS011;18656;50.580;11.392;2023-08-21T05:28:00;31.65;;;26.27;;
32152;SDS011;18656;50.580;11.392;2023-08-21T05:30:27;28.40;;;24.83;;
32152;SDS011;18656;50.580;11.392;2023-08-21T05:32:55;30.77;;;25.10;;
32152;SDS011;18656;50.580;11.392;2023-08-21T05:35:22;27.40;;;24.15;;
32152;SDS011;18656;50.580;11.392;2023-08-21T05:37:49;31.13;;;24.50;;
32152;SDS011;18656;50.580;11.392;2023-08-21T05:40:19;31.80;;;24.38;;
32152;SDS011;18656;50.580;11.392;2023-08-21T05:42:46;28.42;;;24.40;;
32152;SDS011;18656;50.580;11.392;2023-08-21T05:45:14;28.65;;;23.95;;
32152;SDS011;18656;50.580;11.392;2023-08-21T05:47:41;29.23;;;25.05;;
32152;SDS011;18656;50.580;11.392;2023-08-21T05:50:08;30.58;;;25.08;;
32152;SDS011;18656;50.580;11.392;2023-08-21T05:52:36;32.58;;;24.15;;
32152;SDS011;18656;50.580;11.392;2023-08-21T05:55:08;25.92;;;22.88;;
32152;SDS011;18656;50.580;11.392;2023-08-21T05:57:35;26.92;;;23.98;;
32152;SDS011;18656;50.580;11.392;2023-08-21T06:00:03;25.35;;;22.65;;
32152;SDS011;18656;50.580;11.392;2023-08-21T06:02:34;23.33;;;20.83;;
32152;SDS011;18656;50.580;11.392;2023-08-21T06:05:02;21.55;;;19.35;;
32152;SDS011;18656;50.580;11.392;2023-08-21T06:07:29;23.05;;;20.58;;
32152;SDS011;18656;50.580;11.392;2023-08-21T06:09:56;21.40;;;19.23;;
32152;SDS011;18656;50.580;11.392;2023-08-21T06:12:23;23.33;;;19.20;;
32152;SDS011;18656;50.580;11.392;2023-08-21T06:14:51;20.55;;;18.55;;
32152;SDS011;18656;50.580;11.392;2023-08-21T06:17:18;20.58;;;18.58;;
32152;SDS011;18656;50.580;11.392;2023-08-21T06:19:45;21.67;;;19.38;;
32152;SDS011;18656;50.580;11.392;2023-08-21T06:22:13;21.42;;;19.23;;
32152;SDS011;18656;50.580;11.392;2023-08-21T06:24:41;21.45;;;19.20;;
32152;SDS011;18656;50.580;11.392;2023-08-21T06:27:08;22.73;;;20.33;;
32152;SDS011;18656;50.580;11.392;2023-08-21T06:29:36;20.45;;;18.40;;
32152;SDS011;18656;50.580;11.392;2023-08-21T06:32:06;19.42;;;17.60;;
32152;SDS011;18656;50.580;11.392;2023-08-21T06:34:34;19.52;;;17.52;;
32152;SDS011;18656;50.580;11.392;2023-08-21T06:37:01;18.77;;;16.88;;
32152;SDS011;18656;50.580;11.392;2023-08-21T06:39:28;17.65;;;16.05;;
32152;SDS011;18656;50.580;11.392;2023-08-21T06:41:55;17.45;;;15.85;;
32152;SDS011;18656;50.580;11.392;2023-08-21T06:44:22;18.40;;;16.70;;
32152;SDS011;18656;50.580;11.392;2023-08-21T06:46:50;19.75;;;16.90;;
32152;SDS011;18656;50.580;11.392;2023-08-21T06:49:17;23.35;;;18.52;;
32152;SDS011;18656;50.580;11.392;2023-08-21T06:51:44;29.40;;;20.48;;
32152;SDS011;18656;50.580;11.392;2023-08-21T06:54:11;22.83;;;20.40;;
32152;SDS011;18656;50.580;11.392;2023-08-21T06:56:39;25.23;;;22.48;;
32152;SDS011;18656;50.580;11.392;2023-08-21T06:59:06;26.98;;;23.83;;
32152;SDS011;18656;50.580;11.392;2023-08-21T07:01:33;27.42;;;23.50;;
32152;SDS011;18656;50.580;11.392;2023-08-21T07:04:00;28.10;;;24.42;;
32152;SDS011;18656;50.580;11.392;2023-08-21T07:06:29;29.98;;;26.77;;
32152;SDS011;18656;50.580;11.392;2023-08-21T07:08:57;30.13;;;25.75;;
32152;SDS011;18656;50.580;11.392;2023-08-21T07:11:24;26.98;;;24.10;;
32152;SDS011;18656;50.580;11.392;2023-08-21T07:13:52;25.10;;;22.40;;
32152;SDS011;18656;50.580;11.392;2023-08-21T07:16:19;23.50;;;21.00;;
32152;SDS011;18656;50.580;11.392;2023-08-21T07:18:46;27.60;;;21.88;;
32152;SDS011;18656;50.580;11.392;2023-08-21T07:21:13;33.35;;;22.83;;
32152;SDS011;18656;50.580;11.392;2023-08-21T07:23:57;23.40;;;21.10;;
32152;SDS011;18656;50.580;11.392;2023-08-21T07:26:25;23.23;;;20.63;;
32152;SDS011;18656;50.580;11.392;2023-08-21T07:28:52;22.88;;;20.55;;
32152;SDS011;18656;50.580;11.392;2023-08-21T07:31:20;22.92;;;20.63;;
32152;SDS011;18656;50.580;11.392;2023-08-21T07:33:47;22.02;;;19.83;;
32152;SDS011;18656;50.580;11.392;2023-08-21T07:36:15;22.52;;;20.13;;
32152;SDS011;18656;50.580;11.392;2023-08-21T07:38:43;21.60;;;16.50;;
32152;SDS011;18656;50.580;11.392;2023-08-21T07:41:11;21.08;;;18.33;;
32152;SDS011;18656;50.580;11.392;2023-08-21T07:43:40;21.55;;;17.30;;
32152;SDS011;18656;50.580;11.392;2023-08-21T07:46:08;20.98;;;17.73;;
32152;SDS011;18656;50.580;11.392;2023-08-21T07:48:38;21.17;;;18.27;;
32152;SDS011;18656;50.580;11.392;2023-08-21T07:51:06;19.83;;;17.50;;
32152;SDS011;18656;50.580;11.392;2023-08-21T07:53:33;20.67;;;18.20;;
32152;SDS011;18656;50.580;11.392;2023-08-21T07:56:01;21.02;;;18.55;;
32152;SDS011;18656;50.580;11.392;2023-08-21T07:58:30;22.38;;;17.15;;
32152;SDS011;18656;50.580;11.392;2023-08-21T08:00:58;18.67;;;16.77;;
32152;SDS011;18656;50.580;11.392;2023-08-21T08:03:27;19.42;;;16.90;;
32152;SDS011;18656;50.580;11.392;2023-08-21T08:05:55;16.63;;;14.93;;
32152;SDS011;18656;50.580;11.392;2023-08-21T08:08:22;16.30;;;14.60;;
32152;SDS011;18656;50.580;11.392;2023-08-21T08:10:49;16.85;;;14.95;;
32152;SDS011;18656;50.580;11.392;2023-08-21T08:13:17;15.57;;;14.13;;
32152;SDS011;18656;50.580;11.392;2023-08-21T08:15:44;19.00;;;17.30;;
32152;SDS011;18656;50.580;11.392;2023-08-21T08:18:12;17.15;;;15.43;;
32152;SDS011;18656;50.580;11.392;2023-08-21T08:20:39;15.85;;;14.30;;
32152;SDS011;18656;50.580;11.392;2023-08-21T08:23:07;16.73;;;15.07;;
32152;SDS011;18656;50.580;11.392;2023-08-21T08:25:34;18.67;;;15.35;;
32152;SDS011;18656;50.580;11.392;2023-08-21T08:28:02;16.30;;;14.77;;
32152;SDS011;18656;50.580;11.392;2023-08-21T08:30:29;16.88;;;14.60;;
32152;SDS011;18656;50.580;11.392;2023-08-21T08:32:56;21.58;;;16.40;;
32152;SDS011;18656;50.580;11.392;2023-08-21T08:35:23;18.10;;;16.08;;
32152;SDS011;18656;50.580;11.392;2023-08-21T08:37:51;16.73;;;15.20;;
32152;SDS011;18656;50.580;11.392;2023-08-21T08:40:18;17.73;;;15.82;;
32152;SDS011;18656;50.580;11.392;2023-08-21T08:42:45;17.55;;;15.70;;
32152;SDS011;18656;50.580;11.392;2023-08-21T08:45:13;14.80;;;13.50;;
32152;SDS011;18656;50.580;11.392;2023-08-21T08:47:41;17.58;;;15.68;;
32152;SDS011;18656;50.580;11.392;2023-08-21T08:50:09;15.45;;;13.85;;
32152;SDS011;18656;50.580;11.392;2023-08-21T08:52:37;16.38;;;14.77;;
32152;SDS011;18656;50.580;11.392;2023-08-21T08:55:05;14.70;;;13.20;;
32152;SDS011;18656;50.580;11.392;2023-08-21T08:57:33;15.52;;;13.73;;
32152;SDS011;18656;50.580;11.392;2023-08-21T09:00:01;14.52;;;13.10;;
32152;SDS011;18656;50.580;11.392;2023-08-21T09:02:29;13.68;;;12.35;;
32152;SDS011;18656;50.580;11.392;2023-08-21T09:04:57;14.32;;;13.02;;
32152;SDS011;18656;50.580;11.392;2023-08-21T09:07:25;15.20;;;13.80;;
32152;SDS011;18656;50.580;11.392;2023-08-21T09:09:52;14.55;;;13.07;;
32152;SDS011;18656;50.580;11.392;2023-08-21T09:12:20;15.00;;;11.93;;
32152;SDS011;18656;50.580;11.392;2023-08-21T09:14:47;11.55;;;10.18;;
32152;SDS011;18656;50.580;11.392;2023-08-21T09:17:15;15.13;;;13.63;;
32152;SDS011;18656;50.580;11.392;2023-08-21T09:19:43;14.00;;;12.60;;
32152;SDS011;18656;50.580;11.392;2023-08-21T09:22:11;13.02;;;11.73;;
32152;SDS011;18656;50.580;11.392;2023-08-21T09:24:39;12.15;;;10.95;;
32152;SDS011;18656;50.580;11.392;2023-08-21T09:27:16;11.93;;;10.82;;
32152;SDS011;18656;50.580;11.392;2023-08-21T09:29:44;13.75;;;12.48;;
32152;SDS011;18656;50.580;11.392;2023-08-21T09:32:13;15.00;;;13.30;;
32152;SDS011;18656;50.580;11.392;2023-08-21T09:34:42;13.18;;;11.98;;
32152;SDS011;18656;50.580;11.392;2023-08-21T09:37:09;15.80;;;12.15;;
32152;SDS011;18656;50.580;11.392;2023-08-21T09:39:37;16.00;;;12.35;;
32152;SDS011;18656;50.580;11.392;2023-08-21T09:42:07;12.57;;;11.45;;
32152;SDS011;18656;50.580;11.392;2023-08-21T09:44:35;13.50;;;12.20;;
32152;SDS011;18656;50.580;11.392;2023-08-21T09:47:03;13.93;;;10.20;;
32152;SDS011;18656;50.580;11.392;2023-08-21T09:49:31;17.13;;;11.90;;
32152;SDS011;18656;50.580;11.392;2023-08-21T09:51:59;11.68;;;9.93;;
32152;SDS011;18656;50.580;11.392;2023-08-21T09:54:27;11.38;;;10.27;;
32152;SDS011;18656;50.580;11.392;2023-08-21T09:56:55;11.48;;;10.48;;
32152;SDS011;18656;50.580;11.392;2023-08-21T09:59:22;12.68;;;10.02;;
32152;SDS011;18656;50.580;11.392;2023-08-21T10:01:51;11.65;;;10.07;;
32152;SDS011;18656;50.580;11.392;2023-08-21T10:04:18;10.02;;;9.05;;
32152;SDS011;18656;50.580;11.392;2023-08-21T10:06:49;12.93;;;9.68;;
32152;SDS011;18656;50.580;11.392;2023-08-21T10:09:18;13.18;;;8.57;;
32152;SDS011;18656;50.580;11.392;2023-08-21T10:11:46;8.93;;;8.23;;
32152;SDS011;18656;50.580;11.392;2023-08-21T10:14:15;10.13;;;9.13;;
32152;SDS011;18656;50.580;11.392;2023-08-21T10:16:42;11.05;;;8.70;;
32152;SDS011;18656;50.580;11.392;2023-08-21T10:19:13;8.75;;;7.43;;
32152;SDS011;18656;50.580;11.392;2023-08-21T10:21:41;8.95;;;8.10;;
32152;SDS011;18656;50.580;11.392;2023-08-21T10:24:08;7.72;;;7.13;;
32152;SDS011;18656;50.580;11.392;2023-08-21T10:26:37;10.27;;;7.97;;
32152;SDS011;18656;50.580;11.392;2023-08-21T10:29:06;9.18;;;7.63;;
32152;SDS011;18656;50.580;11.392;2023-08-21T10:31:35;7.75;;;7.03;;
32152;SDS011;18656;50.580;11.392;2023-08-21T10:34:14;7.40;;;6.80;;
32152;SDS011;18656;50.580;11.392;2023-08-21T10:39:12;8.32;;;6.72;;
32152;SDS011;18656;50.580;11.392;2023-08-21T10:41:41;7.40;;;6.70;;
32152;SDS011;18656;50.580;11.392;2023-08-21T10:44:08;7.57;;;6.72;;
32152;SDS011;18656;50.580;11.392;2023-08-21T10:46:51;6.45;;;5.90;;
32152;SDS011;18656;50.580;11.392;2023-08-21T10:49:18;7.82;;;6.88;;
32152;SDS011;18656;50.580;11.392;2023-08-21T10:51:45;6.20;;;5.70;;
32152;SDS011;18656;50.580;11.392;2023-08-21T10:54:13;6.60;;;6.10;;
32152;SDS011;18656;50.580;11.392;2023-08-21T10:56:40;6.82;;;6.13;;
32152;SDS011;18656;50.580;11.392;2023-08-21T10:59:08;7.80;;;7.03;;
32152;SDS011;18656;50.580;11.392;2023-08-21T11:01:42;7.05;;;6.45;;
32152;SDS011;18656;50.580;11.392;2023-08-21T11:04:11;6.10;;;5.60;;
32152;SDS011;18656;50.580;11.392;2023-08-21T11:06:39;9.60;;;5.72;;
32152;SDS011;18656;50.580;11.392;2023-08-21T11:09:12;6.10;;;5.60;;
32152;SDS011;18656;50.580;11.392;2023-08-21T11:11:39;5.90;;;5.35;;
32152;SDS011;18656;50.580;11.392;2023-08-21T11:14:06;6.38;;;4.82;;
32152;SDS011;18656;50.580;11.392;2023-08-21T11:16:34;5.25;;;4.82;;
32152;SDS011;18656;50.580;11.392;2023-08-21T11:19:03;6.85;;;6.00;;
32152;SDS011;18656;50.580;11.392;2023-08-21T11:21:31;7.53;;;6.03;;
32152;SDS011;18656;50.580;11.392;2023-08-21T11:23:59;6.80;;;5.65;;
32152;SDS011;18656;50.580;11.392;2023-08-21T11:26:26;6.63;;;6.00;;
32152;SDS011;18656;50.580;11.392;2023-08-21T11:28:53;6.25;;;5.75;;
32152;SDS011;18656;50.580;11.392;2023-08-21T11:31:22;6.13;;;5.43;;
32152;SDS011;18656;50.580;11.392;2023-08-21T11:33:50;8.20;;;5.82;;
32152;SDS011;18656;50.580;11.392;2023-08-21T11:36:17;7.30;;;5.88;;
32152;SDS011;18656;50.580;11.392;2023-08-21T11:38:58;6.97;;;5.95;;
32152;SDS011;18656;50.580;11.392;2023-08-21T11:41:26;10.60;;;6.07;;
32152;SDS011;18656;50.580;11.392;2023-08-21T11:43:57;6.45;;;5.03;;
32152;SDS011;18656;50.580;11.392;2023-08-21T11:46:24;7.78;;;5.20;;
32152;SDS011;18656;50.580;11.392;2023-08-21T11:48:52;7.78;;;6.88;;
32152;SDS011;18656;50.580;11.392;2023-08-21T11:51:19;7.13;;;6.45;;
32152;SDS011;18656;50.580;11.392;2023-08-21T11:53:47;7.72;;;7.00;;
32152;SDS011;18656;50.580;11.392;2023-08-21T11:56:17;7.10;;;6.40;;
32152;SDS011;18656;50.580;11.392;2023-08-21T11:58:49;8.20;;;6.45;;
32152;SDS011;18656;50.580;11.392;2023-08-21T12:01:19;7.07;;;6.43;;
32152;SDS011;18656;50.580;11.392;2023-08-21T12:03:47;7.72;;;6.65;;
32152;SDS011;18656;50.580;11.392;2023-08-21T12:06:22;7.88;;;6.60;;
32152;SDS011;18656;50.580;11.392;2023-08-21T12:08:51;8.20;;;7.30;;
32152;SDS011;18656;50.580;11.392;2023-08-21T12:11:18;11.75;;;7.00;;
32152;SDS011;18656;50.580;11.392;2023-08-21T12:13:45;9.35;;;7.68;;
32152;SDS011;18656;50.580;11.392;2023-08-21T12:16:12;7.10;;;6.43;;
32152;SDS011;18656;50.580;11.392;2023-08-21T12:18:40;9.02;;;7.03;;
32152;SDS011;18656;50.580;11.392;2023-08-21T12:21:07;11.30;;;6.95;;
32152;SDS011;18656;50.580;11.392;2023-08-21T12:23:34;6.47;;;5.60;;
32152;SDS011;18656;50.580;11.392;2023-08-21T12:26:02;9.57;;;6.35;;
32152;SDS011;18656;50.580;11.392;2023-08-21T12:28:29;9.57;;;6.18;;
32152;SDS011;18656;50.580;11.392;2023-08-21T12:30:56;8.30;;;6.07;;
32152;SDS011;18656;50.580;11.392;2023-08-21T12:33:24;6.28;;;5.65;;
32152;SDS011;18656;50.580;11.392;2023-08-21T12:35:52;6.88;;;6.30;;
32152;SDS011;18656;50.580;11.392;2023-08-21T12:38:19;6.40;;;5.80;;
32152;SDS011;18656;50.580;11.392;2023-08-21T12:40:47;7.88;;;5.68;;
32152;SDS011;18656;50.580;11.392;2023-08-21T12:43:14;9.30;;;5.80;;
32152;SDS011;18656;50.580;11.392;2023-08-21T12:45:42;10.73;;;6.18;;
32152;SDS011;18656;50.580;11.392;2023-08-21T12:48:10;18.58;;;6.53;;
32152;SDS011;18656;50.580;11.392;2023-08-21T12:50:37;6.40;;;5.90;;
32152;SDS011;18656;50.580;11.392;2023-08-21T12:53:04;6.53;;;5.53;;
32152;SDS011;18656;50.580;11.392;2023-08-21T12:55:31;7.13;;;5.80;;
32152;SDS011;18656;50.580;11.392;2023-08-21T12:57:58;9.50;;;5.45;;
32152;SDS011;18656;50.580;11.392;2023-08-21T13:00:26;6.05;;;5.47;;
32152;SDS011;18656;50.580;11.392;2023-08-21T13:02:53;7.45;;;6.07;;
32152;SDS011;18656;50.580;11.392;2023-08-21T13:05:20;7.53;;;5.72;;
32152;SDS011;18656;50.580;11.392;2023-08-21T13:07:47;6.75;;;6.05;;
32152;SDS011;18656;50.580;11.392;2023-08-21T13:10:15;9.20;;;5.70;;
32152;SDS011;18656;50.580;11.392;2023-08-21T13:12:42;6.25;;;5.28;;
32152;SDS011;18656;50.580;11.392;2023-08-21T13:15:10;11.80;;;6.57;;
32152;SDS011;18656;50.580;11.392;2023-08-21T13:17:37;5.45;;;4.95;;
32152;SDS011;18656;50.580;11.392;2023-08-21T13:20:05;5.32;;;4.88;;
32152;SDS011;18656;50.580;11.392;2023-08-21T13:22:48;6.45;;;5.38;;
32152;SDS011;18656;50.580;11.392;2023-08-21T13:25:15;7.50;;;5.30;;
32152;SDS011;18656;50.580;11.392;2023-08-21T13:27:43;14.85;;;6.07;;
32152;SDS011;18656;50.580;11.392;2023-08-21T13:30:11;7.78;;;5.00;;
32152;SDS011;18656;50.580;11.392;2023-08-21T13:32:38;5.07;;;4.55;;
32152;SDS011;18656;50.580;11.392;2023-08-21T13:35:06;5.28;;;4.70;;
32152;SDS011;18656;50.580;11.392;2023-08-21T13:37:35;5.70;;;4.47;;
32152;SDS011;18656;50.580;11.392;2023-08-21T13:40:04;5.15;;;4.65;;
32152;SDS011;18656;50.580;11.392;2023-08-21T13:42:43;8.18;;;4.80;;
32152;SDS011;18656;50.580;11.392;2023-08-21T13:45:12;4.68;;;4.38;;
32152;SDS011;18656;50.580;11.392;2023-08-21T13:47:40;4.70;;;4.05;;
32152;SDS011;18656;50.580;11.392;2023-08-21T13:50:08;4.15;;;3.85;;
32152;SDS011;18656;50.580;11.392;2023-08-21T13:52:36;5.88;;;4.43;;
32152;SDS011;18656;50.580;11.392;2023-08-21T13:55:06;5.00;;;4.55;;
32152;SDS011;18656;50.580;11.392;2023-08-21T13:57:34;4.43;;;4.00;;
32152;SDS011;18656;50.580;11.392;2023-08-21T14:00:03;5.05;;;4.65;;
32152;SDS011;18656;50.580;11.392;2023-08-21T14:02:34;4.78;;;4.45;;
32152;SDS011;18656;50.580;11.392;2023-08-21T14:05:02;4.20;;;3.85;;
32152;SDS011;18656;50.580;11.392;2023-08-21T14:07:31;4.65;;;4.35;;
32152;SDS011;18656;50.580;11.392;2023-08-21T14:09:58;6.10;;;4.22;;
32152;SDS011;18656;50.580;11.392;2023-08-21T14:12:27;6.85;;;4.95;;
32152;SDS011;18656;50.580;11.392;2023-08-21T14:14:54;5.72;;;4.47;;
32152;SDS011;18656;50.580;11.392;2023-08-21T14:17:22;4.50;;;4.20;;
32152;SDS011;18656;50.580;11.392;2023-08-21T14:19:49;4.85;;;4.43;;
32152;SDS011;18656;50.580;11.392;2023-08-21T14:22:16;5.47;;;4.20;;